Time;durP1;ratioP1;P1;durP2;ratioP2;P2;SDS_P1;SDS_P2;PMS_P1;PMS_P2;Temp;Humidity;BMP_temperature;BMP_pressure;BME280_temperature;BME280_humidity;BME280_pressure;Samples;Min_cycle;Max_cycle;Signal;HPM_P1;HPM_P2
2022/03/22 00:00:09;;;;;;;44.10;27.02;;;7.40;99.90;;;;;;5052953;28;20048;-78
2022/03/22 00:02:35;;;;;;;42.72;28.00;;;7.40;99.90;;;;;;5036400;28;20450;-78
2022/03/22 00:05:01;;;;;;;42.30;27.00;;;7.40;99.90;;;;;;5052353;28;20041;-78
2022/03/22 00:07:27;;;;;;;45.53;27.77;;;7.30;99.90;;;;;;5036468;28;20484;-77
2022/03/22 00:09:53;;;;;;;42.40;27.23;;;7.30;99.90;;;;;;5035538;28;20052;-78
2022/03/22 00:12:19;;;;;;;42.45;26.52;;;7.30;99.90;;;;;;5052635;28;20064;-78
2022/03/22 00:14:45;;;;;;;43.10;27.08;;;7.30;99.90;;;;;;5052148;28;20057;-78
2022/03/22 00:17:12;;;;;;;40.58;26.98;;;7.30;99.90;;;;;;5052585;28;20041;-78
2022/03/22 00:19:37;;;;;;;42.25;28.40;;;7.30;99.90;;;;;;5052213;28;20041;-78
2022/03/22 00:22:04;;;;;;;44.03;27.75;;;7.30;99.90;;;;;;5052245;28;20049;-78
2022/03/22 00:24:29;;;;;;;44.20;27.80;;;7.30;99.90;;;;;;5052393;28;20526;-78
2022/03/22 00:26:56;;;;;;;42.22;26.58;;;7.20;99.90;;;;;;5051993;28;20060;-78
2022/03/22 00:29:22;;;;;;;41.25;26.88;;;7.20;99.90;;;;;;5052372;28;20033;-78
2022/03/22 00:31:48;;;;;;;44.28;27.30;;;7.20;99.90;;;;;;5051804;28;20041;-78
2022/03/22 00:34:14;;;;;;;43.72;27.55;;;7.10;99.90;;;;;;5035625;28;21155;-78
2022/03/22 00:36:45;;;;;;;41.75;27.40;;;7.10;99.90;;;;;;5053122;28;20075;-78
2022/03/22 00:39:11;;;;;;;46.08;27.88;;;7.10;99.90;;;;;;5051597;28;20057;-78
2022/03/22 00:41:37;;;;;;;44.05;28.15;;;7.10;99.90;;;;;;5051783;28;20045;-79
2022/03/22 00:44:03;;;;;;;41.85;27.55;;;7.10;99.90;;;;;;5018931;28;20041;-78
2022/03/22 00:46:28;;;;;;;44.75;27.50;;;7.10;99.90;;;;;;5052382;28;20451;-78
2022/03/22 00:48:54;;;;;;;43.63;28.07;;;7.10;99.90;;;;;;5051549;28;20041;-78
2022/03/22 00:51:23;;;;;;;44.45;27.58;;;7.10;99.90;;;;;;5050606;28;20045;-78
2022/03/22 00:53:51;;;;;;;45.72;29.38;;;7.10;99.90;;;;;;5051444;28;20530;-78
2022/03/22 00:56:18;;;;;;;44.60;27.80;;;7.00;99.90;;;;;;5051698;28;20059;-78
2022/03/22 00:58:43;;;;;;;47.30;28.52;;;7.10;99.90;;;;;;5051250;28;20037;-78
2022/03/22 01:01:09;;;;;;;46.45;28.55;;;7.00;99.90;;;;;;5018709;28;20045;-77
2022/03/22 01:03:35;;;;;;;45.45;28.20;;;7.00;99.90;;;;;;5051759;28;20044;-78
2022/03/22 01:06:01;;;;;;;42.47;27.52;;;7.10;99.90;;;;;;5034612;28;20040;-78
2022/03/22 01:08:30;;;;;;;45.05;28.08;;;7.00;99.90;;;;;;5052855;28;20120;-78
2022/03/22 01:10:56;;;;;;;42.30;26.83;;;7.10;99.90;;;;;;5051073;28;20495;-78
2022/03/22 01:13:27;;;;;;;43.53;28.13;;;7.10;99.90;;;;;;5034919;28;20067;-78
2022/03/22 01:15:52;;;;;;;41.72;27.52;;;7.10;99.90;;;;;;5051275;28;20503;-78
2022/03/22 01:18:19;;;;;;;45.60;27.58;;;7.10;99.90;;;;;;5018405;28;20047;-77
2022/03/22 01:20:47;;;;;;;48.47;29.08;;;7.10;99.90;;;;;;5050795;28;20045;-77
2022/03/22 01:23:15;;;;;;;42.30;28.52;;;7.00;99.90;;;;;;5051344;28;20496;-77
2022/03/22 01:25:43;;;;;;;45.10;28.42;;;7.00;99.90;;;;;;5050919;28;20049;-77
2022/03/22 01:28:11;;;;;;;47.25;29.08;;;7.00;99.90;;;;;;5034855;28;20041;-78
2022/03/22 01:30:38;;;;;;;45.08;28.95;;;7.00;99.90;;;;;;5050854;28;20094;-78
2022/03/22 01:33:04;;;;;;;;;;;7.00;99.90;;;;;;5050982;28;20053;-77
2022/03/22 01:35:31;;;;;;;44.90;29.38;;;7.00;99.90;;;;;;5051241;28;20429;-78
2022/03/22 01:37:57;;;;;;;43.90;27.92;;;7.00;99.90;;;;;;5050482;28;20072;-78
2022/03/22 01:40:24;;;;;;;;;;;7.00;99.90;;;;;;5035200;28;20193;-79
2022/03/22 01:42:50;;;;;;;45.00;27.85;;;7.00;99.90;;;;;;5050703;28;19986;-79
2022/03/22 01:45:16;;;;;;;47.47;28.83;;;7.00;99.90;;;;;;5034776;28;20041;-77
2022/03/22 01:47:43;;;;;;;46.17;29.20;;;7.00;99.90;;;;;;5050642;28;20139;-78
2022/03/22 01:50:11;;;;;;;46.63;28.85;;;7.00;99.90;;;;;;5051097;28;20044;-77
2022/03/22 01:52:40;;;;;;;50.72;29.48;;;7.00;99.90;;;;;;5034544;28;20045;-77
2022/03/22 01:55:07;;;;;;;47.45;28.50;;;7.00;99.90;;;;;;5051051;28;20063;-77
2022/03/22 01:57:33;;;;;;;47.88;28.90;;;7.00;99.90;;;;;;5051256;28;20045;-79
2022/03/22 02:00:01;;;;;;;45.67;27.48;;;7.00;99.90;;;;;;5050263;28;20048;-78
2022/03/22 02:08:01;;;;;;;43.42;28.20;;;7.00;99.90;;;;;;5031776;28;20048;-78
2022/03/22 02:10:27;;;;;;;46.88;29.80;;;7.00;99.90;;;;;;5031220;28;20493;-77
2022/03/22 02:12:53;;;;;;;47.60;28.75;;;6.90;99.90;;;;;;5030061;28;20120;-77
2022/03/22 02:15:19;;;;;;;45.83;29.05;;;6.90;99.90;;;;;;5013801;28;20061;-77
2022/03/22 02:17:45;;;;;;;50.70;30.05;;;6.90;99.90;;;;;;5013500;28;20095;-78
2022/03/22 02:20:15;;;;;;;44.17;28.85;;;7.00;99.90;;;;;;5030797;28;20048;-77
2022/03/22 02:23:04;;;;;;;44.63;29.25;;;7.00;99.90;;;;;;5042019;28;20052;-79
2022/03/22 02:25:30;;;;;;;46.60;28.65;;;7.00;99.90;;;;;;5049386;28;20049;-78
2022/03/22 02:27:56;;;;;;;49.42;30.38;;;7.10;99.90;;;;;;5049656;28;20039;-78
2022/03/22 02:30:22;;;;;;;50.55;30.25;;;7.10;99.90;;;;;;5050174;28;20526;-78
2022/03/22 02:32:58;;;;;;;49.38;29.95;;;7.10;99.90;;;;;;5049400;28;20090;-78
2022/03/22 02:35:24;;;;;;;48.53;29.98;;;7.10;99.90;;;;;;5049937;28;20052;-78
2022/03/22 02:37:50;;;;;;;47.67;29.95;;;7.10;99.90;;;;;;5032919;28;20170;-78
2022/03/22 02:40:18;;;;;;;48.92;29.90;;;7.10;99.90;;;;;;5049254;28;20052;-79
2022/03/22 02:42:47;;;;;;;47.13;31.13;;;7.10;99.90;;;;;;5049485;28;20045;-78
2022/03/22 02:45:13;;;;;;;49.13;30.58;;;7.10;99.90;;;;;;5049935;28;20059;-78
2022/03/22 02:47:39;;;;;;;46.40;29.67;;;7.20;99.90;;;;;;5050244;28;20419;-78
2022/03/22 02:50:06;;;;;;;;;;;7.10;99.90;;;;;;5050287;28;20052;-78
2022/03/22 02:52:32;;;;;;;49.25;30.17;;;7.10;99.90;;;;;;5049833;28;19924;-79
2022/03/22 02:54:58;;;;;;;47.00;30.23;;;7.10;99.90;;;;;;5049152;28;20041;-78
2022/03/22 02:57:23;;;;;;;52.23;30.13;;;7.00;99.90;;;;;;5050013;28;20044;-78
2022/03/22 02:59:49;;;;;;;48.13;29.55;;;7.00;99.90;;;;;;5048751;28;20048;-77
2022/03/22 03:02:15;;;;;;;49.07;30.27;;;7.00;99.90;;;;;;5049827;28;20118;-78
2022/03/22 03:04:40;;;;;;;48.90;30.47;;;7.00;99.90;;;;;;5033376;28;20283;-78
2022/03/22 03:07:06;;;;;;;54.05;31.85;;;7.00;99.90;;;;;;5048938;28;20053;-77
2022/03/22 03:09:32;;;;;;;48.63;31.58;;;6.90;99.90;;;;;;5032753;28;20037;-79
2022/03/22 03:11:58;;;;;;;47.77;30.30;;;6.90;99.90;;;;;;5056918;28;20492;-79
2022/03/22 03:14:38;;;;;;;50.03;31.37;;;6.80;99.90;;;;;;5052254;28;20279;-78
2022/03/22 03:17:06;;;;;;;50.53;31.50;;;6.80;99.90;;;;;;5050928;28;20356;-78
2022/03/22 03:19:32;;;;;;;47.45;30.20;;;6.70;99.90;;;;;;5032611;28;20048;-78
2022/03/22 03:21:58;;;;;;;49.17;30.90;;;6.70;99.90;;;;;;5032327;28;20400;-78
2022/03/22 03:24:24;;;;;;;49.70;30.15;;;6.70;99.90;;;;;;5032781;28;20330;-77
2022/03/22 03:26:50;;;;;;;47.35;28.73;;;6.80;99.90;;;;;;5032036;28;20087;-77
2022/03/22 03:29:16;;;;;;;49.22;30.10;;;6.80;99.90;;;;;;5032632;28;20068;-77
2022/03/22 03:31:41;;;;;;;49.08;31.02;;;6.80;99.90;;;;;;5032788;28;20044;-79
2022/03/22 03:34:07;;;;;;;50.30;30.45;;;6.80;99.90;;;;;;5032503;28;20044;-78
2022/03/22 03:36:33;;;;;;;48.92;30.52;;;6.80;99.90;;;;;;5046711;28;20050;-78
2022/03/22 03:38:59;;;;;;;50.72;31.08;;;6.80;99.90;;;;;;5051988;28;20048;-77
2022/03/22 03:47:09;;;;;;;53.58;31.60;;;6.70;99.90;;;;;;5051738;28;20103;-78
2022/03/22 03:49:46;;;;;;;52.80;31.15;;;6.70;99.90;;;;;;5052544;28;20119;-78
2022/03/22 03:52:23;;;;;;;50.33;30.13;;;6.70;99.90;;;;;;5052174;28;20070;-78
2022/03/22 03:54:50;;;;;;;47.13;30.98;;;6.70;99.90;;;;;;5034302;28;20084;-78
2022/03/22 03:57:17;;;;;;;48.20;30.05;;;6.70;99.90;;;;;;5052140;28;20118;-78
2022/03/22 03:59:43;;;;;;;;;;;6.80;99.90;;;;;;5036358;28;20045;-78
2022/03/22 04:02:10;;;;;;;48.63;30.38;;;6.80;99.90;;;;;;5052355;28;20350;-77
2022/03/22 04:04:37;;;;;;;50.25;30.83;;;6.80;99.90;;;;;;5052337;28;20115;-78
2022/03/22 04:07:05;;;;;;;48.28;31.05;;;6.80;99.90;;;;;;5052016;28;20502;-77
2022/03/22 04:09:31;;;;;;;47.92;30.60;;;6.70;99.90;;;;;;5052407;28;20050;-78
2022/03/22 04:11:57;;;;;;;47.17;29.70;;;6.70;99.90;;;;;;5030165;28;20071;-77
2022/03/22 04:14:23;;;;;;;51.05;31.15;;;6.70;99.90;;;;;;5048991;28;20056;-77
2022/03/22 04:16:51;;;;;;;53.35;31.48;;;6.70;99.90;;;;;;5048815;28;20049;-77
2022/03/22 04:19:17;;;;;;;50.67;30.40;;;6.70;99.90;;;;;;5048755;28;20040;-78
2022/03/22 04:21:45;;;;;;;52.67;30.65;;;6.70;99.90;;;;;;5048623;28;20451;-78
2022/03/22 04:24:12;;;;;;;49.25;30.92;;;6.70;99.90;;;;;;5048496;28;20071;-78
2022/03/22 04:26:39;;;;;;;48.15;30.95;;;6.70;99.90;;;;;;5051767;28;20468;-78
2022/03/22 04:34:36;;;;;;;52.05;31.38;;;6.70;99.90;;;;;;5052280;28;20053;-78
2022/03/22 04:37:02;;;;;;;49.33;30.38;;;6.60;99.90;;;;;;5035104;28;20041;-78
2022/03/22 04:39:30;;;;;;;47.40;30.10;;;6.60;99.90;;;;;;5035587;28;20088;-78
2022/03/22 04:41:58;;;;;;;48.30;30.00;;;6.60;99.90;;;;;;5051700;28;20044;-78
2022/03/22 04:44:26;;;;;;;54.88;31.70;;;6.60;99.90;;;;;;5051781;28;20048;-78
2022/03/22 04:46:53;;;;;;;51.38;31.35;;;6.60;99.90;;;;;;5051884;28;20477;-78
2022/03/22 04:49:18;;;;;;;53.35;31.95;;;6.60;99.90;;;;;;5053314;28;20045;-78
2022/03/22 04:57:13;;;;;;;49.60;30.50;;;6.60;99.90;;;;;;5051608;28;20053;-77
2022/03/22 04:59:38;;;;;;;51.17;31.33;;;6.50;99.90;;;;;;5051308;28;20049;-78
2022/03/22 05:02:04;;;;;;;50.45;30.75;;;6.50;99.90;;;;;;5051216;28;20503;-78
2022/03/22 05:04:30;;;;;;;48.08;30.98;;;6.50;99.90;;;;;;5051760;28;20488;-77
2022/03/22 05:06:56;;;;;;;46.27;30.57;;;6.50;99.90;;;;;;5035225;28;20075;-78
2022/03/22 05:09:24;;;;;;;48.60;31.37;;;6.50;99.90;;;;;;5052015;28;20287;-78
2022/03/22 05:11:50;;;;;;;46.72;29.73;;;6.50;99.90;;;;;;5051458;28;20291;-78
2022/03/22 05:14:16;;;;;;;49.85;30.88;;;6.40;99.90;;;;;;5034597;28;20049;-78
2022/03/22 05:16:41;;;;;;;46.35;30.42;;;6.40;99.90;;;;;;5051547;28;20080;-79
2022/03/22 05:19:07;;;;;;;48.05;30.40;;;6.40;99.90;;;;;;5050733;28;20041;-78
2022/03/22 05:21:33;;;;;;;45.45;29.50;;;6.40;99.90;;;;;;5051533;28;20115;-78
2022/03/22 05:23:59;;;;;;;51.60;31.70;;;6.40;99.90;;;;;;5050944;28;20041;-77
2022/03/22 05:26:27;;;;;;;52.30;30.67;;;6.40;99.90;;;;;;5051743;28;20047;-79
2022/03/22 05:28:54;;;;;;;51.58;30.45;;;6.40;99.90;;;;;;5051554;28;20508;-78
2022/03/22 05:31:21;;;;;;;46.67;29.35;;;6.30;99.90;;;;;;5034483;28;20036;-78
2022/03/22 05:33:52;;;;;;;46.10;29.02;;;6.30;99.90;;;;;;5051328;28;20488;-78
2022/03/22 05:36:18;;;;;;;46.40;29.88;;;6.30;99.90;;;;;;5051042;28;20423;-78
2022/03/22 05:38:44;;;;;;;48.70;30.20;;;6.30;99.90;;;;;;5050718;28;20110;-78
2022/03/22 05:41:10;;;;;;;53.15;31.73;;;6.30;99.90;;;;;;5050726;28;20087;-78
2022/03/22 05:43:36;;;;;;;43.90;28.42;;;6.30;99.90;;;;;;5050594;28;20044;-78
2022/03/22 05:46:03;;;;;;;52.13;31.05;;;6.30;99.90;;;;;;5034067;28;20124;-78
2022/03/22 05:48:30;;;;;;;;;;;6.20;99.90;;;;;;5051552;28;20086;-78
2022/03/22 05:50:56;;;;;;;46.97;30.23;;;6.20;99.90;;;;;;5051023;28;19952;-78
2022/03/22 05:53:22;;;;;;;;;;;6.20;99.90;;;;;;5051804;28;20076;-79
2022/03/22 05:55:48;;;;;;;46.10;29.30;;;6.30;99.90;;;;;;5034136;28;19964;-78
2022/03/22 05:58:14;;;;;;;48.53;30.77;;;6.30;99.90;;;;;;5050124;28;20080;-77
2022/03/22 06:00:40;;;;;;;49.67;30.45;;;6.20;99.90;;;;;;5050611;28;20052;-77
2022/03/22 06:03:06;;;;;;;52.10;30.25;;;6.30;99.90;;;;;;5033571;28;20515;-79
2022/03/22 06:05:32;;;;;;;48.60;29.80;;;6.20;99.90;;;;;;5050885;28;20037;-78
2022/03/22 06:07:59;;;;;;;51.25;30.40;;;6.30;99.90;;;;;;5050085;28;20041;-78
2022/03/22 06:10:25;;;;;;;47.38;29.70;;;6.30;99.90;;;;;;5050625;28;20056;-78
2022/03/22 06:12:53;;;;;;;47.45;29.95;;;6.30;99.90;;;;;;5049933;28;20515;-78
2022/03/22 06:15:28;;;;;;;49.25;30.15;;;6.30;99.90;;;;;;5049483;28;20060;-77
2022/03/22 06:18:05;;;;;;;48.95;30.00;;;6.40;99.90;;;;;;5050431;28;20080;-79
2022/03/22 06:20:33;;;;;;;46.20;29.25;;;6.40;99.90;;;;;;5050306;28;20045;-78
2022/03/22 06:23:01;;;;;;;48.35;29.45;;;6.50;99.90;;;;;;5049632;28;20056;-78
2022/03/22 06:25:27;;;;;;;46.88;29.10;;;6.50;99.90;;;;;;5050250;28;20052;-77
2022/03/22 06:27:54;;;;;;;49.85;28.85;;;6.50;99.90;;;;;;5033532;28;20048;-78
2022/03/22 06:30:21;;;;;;;51.13;29.95;;;6.60;99.90;;;;;;5049263;28;20041;-78
2022/03/22 06:32:50;;;;;;;47.50;28.65;;;6.70;99.90;;;;;;5050044;28;20056;-78
2022/03/22 06:35:21;;;;;;;49.30;28.00;;;6.70;99.90;;;;;;5049816;28;20557;-78
2022/03/22 06:37:49;;;;;;;46.55;29.25;;;6.70;99.90;;;;;;5033382;28;20099;-78
2022/03/22 06:40:17;;;;;;;45.65;28.42;;;6.80;99.90;;;;;;5049542;28;20648;-78
2022/03/22 06:42:43;;;;;;;47.10;28.17;;;6.90;99.90;;;;;;5049698;28;20049;-78
2022/03/22 06:45:12;;;;;;;;;;;7.00;99.90;;;;;;5049504;28;20045;-78
2022/03/22 06:47:42;;;;;;;45.45;27.60;;;7.00;99.90;;;;;;5049933;28;19972;-78
2022/03/22 06:50:10;;;;;;;46.63;28.83;;;7.10;99.90;;;;;;5048555;28;20453;-77
2022/03/22 06:52:36;;;;;;;43.90;27.20;;;7.10;99.90;;;;;;5049643;28;20041;-78
2022/03/22 06:55:03;;;;;;;47.15;27.77;;;7.20;99.90;;;;;;5050479;28;20047;-78
2022/03/22 06:57:29;;;;;;;42.90;27.35;;;7.30;99.90;;;;;;5049744;28;20033;-78
2022/03/22 06:59:59;;;;;;;42.33;27.02;;;7.40;99.90;;;;;;5033348;28;20389;-78
2022/03/22 07:02:24;;;;;;;45.58;27.75;;;7.50;99.90;;;;;;5048732;28;20079;-78
2022/03/22 07:04:51;;;;;;;43.78;27.08;;;7.60;99.90;;;;;;5033105;28;20516;-78
2022/03/22 07:07:17;;;;;;;42.35;26.15;;;7.80;99.90;;;;;;5032604;28;20106;-78
2022/03/22 07:09:43;;;;;;;43.47;27.45;;;8.00;99.90;;;;;;5049770;28;20408;-78
2022/03/22 07:12:10;;;;;;;45.55;28.02;;;8.10;99.90;;;;;;5048416;28;20064;-77
2022/03/22 07:14:38;;;;;;;42.92;26.20;;;8.20;99.90;;;;;;5049579;28;20041;-78
2022/03/22 07:17:05;;;;;;;44.70;27.17;;;8.20;99.90;;;;;;5049128;28;20037;-78
2022/03/22 07:19:31;;;;;;;44.83;26.52;;;8.30;99.90;;;;;;5029360;28;20073;-78
2022/03/22 07:21:59;;;;;;;45.42;27.48;;;8.40;99.90;;;;;;5029192;28;20130;-79
2022/03/22 07:24:25;;;;;;;41.88;26.10;;;8.50;99.90;;;;;;5029193;28;20086;-78
2022/03/22 07:26:50;;;;;;;42.70;25.63;;;8.60;99.90;;;;;;5029164;28;20124;-79
2022/03/22 07:29:16;;;;;;;43.03;25.58;;;8.70;99.90;;;;;;5029089;28;20130;-78
2022/03/22 07:31:42;;;;;;;39.50;25.17;;;8.90;99.90;;;;;;5029597;28;20037;-78
2022/03/22 07:34:11;;;;;;;41.05;25.95;;;9.30;99.90;;;;;;5012706;28;20037;-78
2022/03/22 07:36:39;;;;;;;40.67;25.42;;;9.80;99.90;;;;;;5046250;28;20542;-78
2022/03/22 07:39:08;;;;;;;40.17;24.23;;;10.20;99.90;;;;;;5049041;28;20540;-78
2022/03/22 07:41:34;;;;;;;38.33;23.75;;;10.60;99.90;;;;;;5049230;28;20041;-78
2022/03/22 07:44:01;;;;;;;;;;;11.10;99.90;;;;;;5049474;28;20041;-78
2022/03/22 07:46:27;;;;;;;40.67;24.30;;;11.50;99.90;;;;;;5048884;28;19923;-78
2022/03/22 07:48:53;;;;;;;37.08;24.45;;;11.70;99.90;;;;;;5049143;28;20456;-78
2022/03/22 07:54:04;;;;;;;36.00;23.20;;;12.10;99.90;;;;;;5028906;28;20134;-78
2022/03/22 07:56:33;;;;;;;;;;;12.50;99.90;;;;;;5029759;28;20476;-78
2022/03/22 07:58:59;;;;;;;36.53;22.75;;;12.70;99.90;;;;;;5028686;28;19917;-78
2022/03/22 08:01:24;;;;;;;34.67;23.10;;;12.90;99.90;;;;;;5031255;28;20419;-78
2022/03/22 08:03:51;;;;;;;33.63;23.15;;;13.10;99.90;;;;;;5016006;28;20050;-78
2022/03/22 08:06:17;;;;;;;34.95;22.35;;;13.00;99.90;;;;;;5032621;28;20033;-79
2022/03/22 08:08:44;;;;;;;35.05;22.92;;;13.10;99.90;;;;;;5020387;28;20078;-78
2022/03/22 08:11:11;;;;;;;35.50;21.52;;;13.40;99.90;;;;;;5052342;28;20041;-78
2022/03/22 08:13:38;;;;;;;34.70;21.55;;;13.60;99.90;;;;;;5052112;28;20061;-78
2022/03/22 08:16:05;;;;;;;32.08;21.85;;;14.00;99.90;;;;;;5035973;28;20052;-78
2022/03/22 08:18:31;;;;;;;35.88;23.20;;;14.60;99.90;;;;;;5052989;28;20392;-78
2022/03/22 08:20:56;;;;;;;34.75;22.02;;;15.10;99.90;;;;;;5036225;28;20049;-79
2022/03/22 08:23:22;;;;;;;31.77;21.85;;;15.80;99.90;;;;;;5051935;28;20120;-78
2022/03/22 08:25:50;;;;;;;36.05;21.60;;;16.10;99.90;;;;;;5052358;28;20029;-78
2022/03/22 08:28:17;;;;;;;31.02;20.33;;;16.70;99.90;;;;;;5052103;28;20040;-78
2022/03/22 08:30:44;;;;;;;33.00;21.23;;;17.10;99.90;;;;;;5052686;28;20463;-79
2022/03/22 08:33:11;;;;;;;36.13;21.98;;;17.40;99.90;;;;;;5052012;28;20422;-78
2022/03/22 08:35:45;;;;;;;29.25;19.85;;;17.30;99.90;;;;;;5035888;28;20048;-78
2022/03/22 08:38:12;;;;;;;29.95;20.25;;;18.00;99.00;;;;;;5051728;28;20051;-77
2022/03/22 08:40:39;;;;;;;31.20;20.45;;;18.30;98.80;;;;;;5052366;28;20440;-78
2022/03/22 08:43:08;;;;;;;28.55;20.45;;;18.40;97.90;;;;;;5051597;28;20079;-78
2022/03/22 08:45:35;;;;;;;32.08;20.95;;;18.10;97.40;;;;;;5035496;28;20037;-78
2022/03/22 08:48:08;;;;;;;32.72;21.38;;;18.00;94.70;;;;;;5051863;28;20045;-78
2022/03/22 08:50:34;;;;;;;29.48;20.85;;;17.80;96.10;;;;;;5052343;28;20554;-79
2022/03/22 08:53:01;;;;;;;30.00;21.77;;;18.00;95.40;;;;;;5035390;28;20044;-79
2022/03/22 08:55:27;;;;;;;33.00;21.83;;;18.10;96.70;;;;;;5052756;28;20048;-78
2022/03/22 08:57:53;;;;;;;33.15;22.30;;;18.10;94.90;;;;;;5051680;28;20110;-78
2022/03/22 09:00:20;;;;;;;32.30;21.00;;;17.80;95.80;;;;;;5051149;28;20036;-78
2022/03/22 09:02:48;;;;;;;30.60;20.73;;;17.70;96.50;;;;;;5052025;28;20052;-77
2022/03/22 09:08:01;;;;;;;33.35;20.92;;;17.70;96.90;;;;;;5051611;28;20945;-78
2022/03/22 09:10:29;;;;;;;28.33;20.17;;;18.10;96.30;;;;;;5052591;28;20499;-77
2022/03/22 09:12:55;;;;;;;27.90;20.35;;;18.10;95.80;;;;;;5050391;28;20068;-77
2022/03/22 09:15:23;;;;;;;29.77;19.67;;;18.30;94.60;;;;;;5034745;28;20492;-78
2022/03/22 09:17:50;;;;;;;30.73;21.13;;;18.50;95.30;;;;;;5051257;28;20102;-78
2022/03/22 09:20:16;;;;;;;29.35;20.05;;;19.00;94.00;;;;;;5017848;28;20045;-78
2022/03/22 09:22:43;;;;;;;;;;;19.40;94.00;;;;;;5051803;28;20052;-78
2022/03/22 09:25:12;;;;;;;32.53;20.33;;;19.70;92.10;;;;;;5035069;28;19916;-78
2022/03/22 09:27:41;;;;;;;25.77;19.00;;;20.30;90.60;;;;;;5051511;28;20048;-78
2022/03/22 09:30:08;;;;;;;27.98;19.33;;;20.70;89.10;;;;;;5051626;28;20380;-77
2022/03/22 09:32:38;;;;;;;27.35;19.77;;;20.50;87.30;;;;;;5034481;28;20550;-78
2022/03/22 09:35:07;;;;;;;27.15;20.02;;;20.20;87.30;;;;;;5051192;28;20527;-78
2022/03/22 09:37:37;;;;;;;26.13;19.35;;;20.50;89.00;;;;;;5050705;28;20492;-78
2022/03/22 09:40:04;;;;;;;28.52;19.00;;;21.10;86.00;;;;;;5050977;28;20068;-78
2022/03/22 09:42:30;;;;;;;25.55;19.63;;;21.40;86.00;;;;;;5050769;28;20488;-77
2022/03/22 09:45:01;;;;;;;25.83;19.45;;;20.90;84.50;;;;;;5050930;28;20127;-77
2022/03/22 09:47:27;;;;;;;26.73;19.13;;;21.10;83.90;;;;;;5050825;28;20500;-78
2022/03/22 09:49:55;;;;;;;29.35;18.65;;;21.60;81.90;;;;;;5050599;28;20067;-78
2022/03/22 09:52:21;;;;;;;28.48;18.42;;;21.40;81.80;;;;;;5034243;28;20511;-78
2022/03/22 09:54:47;;;;;;;23.98;19.52;;;21.70;81.50;;;;;;5030703;28;20380;-78
2022/03/22 09:57:13;;;;;;;;;;;22.30;80.20;;;;;;5030825;28;20061;-78
2022/03/22 09:59:39;;;;;;;28.85;20.20;;;22.20;79.90;;;;;;5014383;28;19921;-78
2022/03/22 10:02:05;;;;;;;;;;;21.70;77.70;;;;;;5014488;28;20480;-78
2022/03/22 10:04:44;;;;;;;25.98;18.75;;;21.70;78.10;;;;;;5014174;28;19921;-78
2022/03/22 10:07:18;;;;;;;25.10;18.48;;;21.70;78.70;;;;;;5030541;28;20040;-78
2022/03/22 10:09:51;;;;;;;25.98;19.55;;;21.70;79.70;;;;;;5014078;28;20120;-77
2022/03/22 10:12:37;;;;;;;27.90;18.60;;;22.20;77.40;;;;;;5039818;28;20123;-78
2022/03/22 10:15:06;;;;;;;27.33;18.77;;;22.80;76.90;;;;;;5053084;28;20052;-78
2022/03/22 10:17:32;;;;;;;27.02;18.15;;;22.70;75.70;;;;;;5053409;28;20521;-78
2022/03/22 10:19:58;;;;;;;;;;;22.30;75.80;;;;;;5053671;28;20036;-77
2022/03/22 10:22:25;;;;;;;26.77;17.95;;;22.70;74.20;;;;;;5053268;28;20481;-77
2022/03/22 10:25:03;;;;;;;27.23;17.70;;;23.20;75.40;;;;;;5036453;28;20044;-77
2022/03/22 10:27:30;;;;;;;25.67;18.13;;;23.10;74.70;;;;;;5052868;28;20041;-77
2022/03/22 10:29:57;;;;;;;27.67;18.88;;;22.90;74.20;;;;;;5034489;28;20040;-78
2022/03/22 10:32:34;;;;;;;26.95;17.60;;;23.00;73.20;;;;;;5033434;28;20570;-78
2022/03/22 10:35:17;;;;;;;23.75;16.85;;;23.20;72.50;;;;;;5033264;28;20047;-78
2022/03/22 10:37:47;;;;;;;23.73;17.15;;;23.10;73.80;;;;;;5051371;28;20029;-78
2022/03/22 10:40:29;;;;;;;26.52;17.30;;;23.80;72.30;;;;;;5033070;28;20041;-77
2022/03/22 10:43:01;;;;;;;26.50;16.80;;;23.80;72.20;;;;;;5033230;28;20053;-76
2022/03/22 10:45:28;;;;;;;24.67;17.50;;;24.00;71.60;;;;;;5032364;28;20045;-78
2022/03/22 10:47:56;;;;;;;26.48;16.60;;;23.60;71.50;;;;;;5049484;28;20040;-78
2022/03/22 10:50:22;;;;;;;24.85;17.92;;;23.90;70.90;;;;;;5049369;28;20052;-78
2022/03/22 10:52:57;;;;;;;26.48;18.02;;;24.00;69.90;;;;;;5049688;28;20041;-78
2022/03/22 10:55:27;;;;;;;23.20;17.98;;;24.20;72.10;;;;;;5049376;28;20053;-78
2022/03/22 10:57:55;;;;;;;26.85;17.65;;;24.50;70.40;;;;;;5050743;28;20111;-77
2022/03/22 11:00:22;;;;;;;24.05;17.95;;;24.10;69.70;;;;;;5049208;28;20045;-77
2022/03/22 11:02:51;;;;;;;26.83;18.40;;;23.90;70.40;;;;;;5044696;28;20488;-77
2022/03/22 11:05:20;;;;;;;27.90;19.60;;;24.70;70.80;;;;;;5032624;28;20047;-78
2022/03/22 11:07:51;;;;;;;25.70;18.10;;;25.30;69.70;;;;;;5017342;28;20047;-78
2022/03/22 11:10:30;;;;;;;27.30;19.00;;;25.10;70.40;;;;;;5032550;28;20143;-77
2022/03/22 11:12:58;;;;;;;26.95;18.90;;;25.50;69.10;;;;;;5037906;28;20552;-77
2022/03/22 11:15:29;;;;;;;26.25;19.35;;;25.30;69.80;;;;;;5032509;28;20052;-78
2022/03/22 11:17:56;;;;;;;24.30;19.40;;;24.90;70.00;;;;;;5033429;28;20072;-78
2022/03/22 11:20:24;;;;;;;24.77;19.02;;;24.60;71.20;;;;;;5048603;28;20094;-77
2022/03/22 11:22:54;;;;;;;25.52;18.50;;;24.80;70.80;;;;;;5049205;28;20041;-77
2022/03/22 11:25:28;;;;;;;23.10;18.45;;;25.10;70.40;;;;;;5032303;28;20033;-77
2022/03/22 11:28:12;;;;;;;25.80;18.70;;;25.50;69.70;;;;;;5049617;28;20073;-77
2022/03/22 11:30:42;;;;;;;26.52;19.00;;;25.80;69.20;;;;;;5049303;28;20451;-77
2022/03/22 11:35:57;;;;;;;26.98;19.08;;;26.00;67.00;;;;;;5050609;28;20210;-77
2022/03/22 11:38:55;;;;;;;25.92;19.38;;;25.40;67.80;;;;;;5036408;28;20476;-77
2022/03/22 11:44:46;;;;;;;24.90;17.58;;;24.90;69.20;;;;;;5052626;28;20068;-76
2022/03/22 11:47:15;;;;;;;25.50;18.35;;;24.60;68.90;;;;;;5031812;28;20048;-76
2022/03/22 11:49:58;;;;;;;24.38;17.83;;;24.70;68.50;;;;;;5052830;28;20395;-77
2022/03/22 11:52:46;;;;;;;26.75;17.98;;;24.90;68.00;;;;;;5035434;28;20140;-77
2022/03/22 11:55:22;;;;;;;23.65;17.60;;;25.70;67.50;;;;;;5052615;28;20084;-76
2022/03/22 11:57:50;;;;;;;23.30;17.52;;;25.90;67.50;;;;;;5053279;28;20115;-77
2022/03/22 12:00:55;;;;;;;24.25;17.88;;;26.30;66.80;;;;;;5036493;28;20515;-76
2022/03/22 12:03:28;;;;;;;24.20;17.83;;;26.50;65.90;;;;;;5052506;28;20049;-77
2022/03/22 12:05:54;;;;;;;26.17;17.77;;;26.70;66.50;;;;;;5052649;28;20073;-77
2022/03/22 12:08:20;;;;;;;26.95;17.88;;;26.90;66.40;;;;;;5053411;28;20484;-77
2022/03/22 12:10:51;;;;;;;24.40;17.85;;;27.10;65.90;;;;;;5052578;28;20037;-77
2022/03/22 12:13:18;;;;;;;26.08;18.30;;;27.20;65.00;;;;;;5055649;28;20060;-77
2022/03/22 12:15:44;;;;;;;23.63;16.40;;;26.70;65.70;;;;;;5055536;28;20158;-77
2022/03/22 12:18:11;;;;;;;26.45;17.48;;;26.80;64.90;;;;;;5055739;28;20044;-77
2022/03/22 12:20:37;;;;;;;25.30;17.27;;;27.40;64.50;;;;;;5039250;28;20044;-77
2022/03/22 12:23:03;;;;;;;23.67;16.95;;;27.00;64.00;;;;;;5055516;28;20048;-77
2022/03/22 12:25:35;;;;;;;27.40;17.40;;;26.40;64.70;;;;;;5055240;28;20109;-78
2022/03/22 12:28:08;;;;;;;26.38;16.95;;;26.20;65.60;;;;;;5055619;28;20052;-77
2022/03/22 12:30:38;;;;;;;25.88;16.90;;;26.20;65.00;;;;;;5038897;28;20036;-77
2022/03/22 12:33:07;;;;;;;23.88;17.23;;;26.70;63.50;;;;;;5055486;28;20041;-77
2022/03/22 12:35:34;;;;;;;26.95;17.33;;;26.00;64.60;;;;;;5055547;28;20395;-76
2022/03/22 12:38:00;;;;;;;22.63;16.77;;;26.20;64.00;;;;;;5055681;28;20454;-77
2022/03/22 12:40:27;;;;;;;25.45;17.55;;;26.20;64.70;;;;;;5055503;28;20396;-76
2022/03/22 12:42:55;;;;;;;26.38;17.42;;;26.10;64.90;;;;;;5055080;28;20040;-76
2022/03/22 12:45:23;;;;;;;24.88;16.33;;;26.70;64.20;;;;;;5055626;28;20086;-76
2022/03/22 12:47:52;;;;;;;24.17;16.80;;;27.50;63.60;;;;;;5038829;28;20341;-77
2022/03/22 12:50:20;;;;;;;22.90;17.17;;;28.10;62.70;;;;;;5055857;28;20387;-76
2022/03/22 12:52:46;;;;;;;27.70;17.02;;;28.50;61.40;;;;;;5055105;28;20083;-76
2022/03/22 12:55:13;;;;;;;25.40;17.00;;;28.80;61.10;;;;;;5038312;28;20040;-76
2022/03/22 12:57:46;;;;;;;23.58;16.60;;;29.30;61.60;;;;;;5054864;28;20369;-76
2022/03/22 13:00:33;;;;;;;20.92;14.77;;;29.30;61.90;;;;;;5055097;28;20042;-76
2022/03/22 13:03:17;;;;;;;21.95;14.10;;;29.40;60.00;;;;;;5054869;28;20512;-77
2022/03/22 13:05:45;;;;;;;20.90;14.18;;;29.70;59.70;;;;;;5054691;28;20136;-77
2022/03/22 13:08:17;;;;;;;20.55;14.00;;;29.80;59.80;;;;;;5054714;28;20043;-77
2022/03/22 13:15:01;;;;;;;21.50;13.80;;;29.90;59.30;;;;;;5054060;28;20896;-76
2022/03/22 13:16:24;;;;;;;24.70;13.90;;;29.90;59.10;;;;;;5053947;28;20141;-77